createdAt,value
2019-02-14T00:00:22.052Z,27.77
2019-02-14T00:02:50.570Z,25.47
2019-02-14T00:05:19.028Z,22.33
2019-02-14T00:07:47.561Z,24.97
2019-02-14T00:10:16.059Z,17.53
2019-02-14T00:12:44.593Z,24.73
2019-02-14T00:15:14.161Z,26.10
2019-02-14T00:17:42.640Z,25.83
2019-02-14T00:20:11.550Z,26.30
2019-02-14T00:22:40.011Z,26.93
2019-02-14T00:25:08.576Z,26.33
2019-02-14T00:27:37.038Z,31.57
2019-02-14T00:30:08.198Z,23.53
2019-02-14T00:32:36.675Z,19.03
2019-02-14T00:35:06.874Z,24.63
2019-02-14T00:37:35.390Z,20.43
2019-02-14T00:40:06.127Z,30.10
2019-02-14T00:42:34.570Z,25.00
2019-02-14T00:45:03.094Z,26.23
2019-02-14T00:47:50.929Z,24.50
2019-02-14T00:50:19.384Z,24.80
2019-02-14T00:52:47.905Z,24.10
2019-02-14T00:55:16.381Z,28.10
2019-02-14T00:57:44.844Z,19.33
2019-02-14T01:00:14.048Z,22.00
2019-02-14T01:02:42.510Z,26.17
2019-02-14T01:05:11.008Z,21.43
2019-02-14T01:07:39.530Z,20.03
2019-02-14T01:10:08.382Z,16.87
2019-02-14T01:12:36.961Z,21.87
2019-02-14T01:15:09.498Z,25.87
2019-02-14T01:17:38.057Z,24.83
2019-02-14T01:20:07.508Z,33.60
2019-02-14T01:22:35.961Z,23.53
2019-02-14T01:25:05.585Z,20.77
2019-02-14T01:27:34.046Z,26.43
2019-02-14T01:30:02.525Z,25.03
2019-02-14T01:32:31.082Z,25.17
2019-02-14T01:34:59.705Z,22.77
2019-02-14T01:37:28.163Z,22.00
2019-02-14T01:39:56.623Z,18.40
2019-02-14T01:42:25.091Z,19.37
2019-02-14T01:44:53.538Z,21.03
2019-02-14T01:47:21.991Z,20.60
2019-02-14T01:49:50.450Z,18.50
2019-02-14T01:52:18.936Z,20.40
2019-02-14T01:54:47.390Z,24.30
2019-02-14T01:57:15.884Z,20.20
2019-02-14T01:59:44.364Z,26.07
2019-02-14T02:02:12.828Z,18.83
2019-02-14T02:04:41.303Z,18.97
2019-02-14T02:07:10.148Z,21.80
2019-02-14T02:09:38.603Z,19.80
2019-02-14T02:12:13.206Z,21.53
2019-02-14T02:15:01.008Z,24.33
2019-02-14T02:17:29.534Z,16.50
2019-02-14T02:19:58.033Z,20.93
2019-02-14T02:22:26.482Z,18.13
2019-02-14T02:24:54.929Z,24.00
2019-02-14T02:27:23.892Z,22.30
2019-02-14T02:29:52.340Z,23.00
2019-02-14T02:32:20.782Z,19.17
2019-02-14T02:34:49.271Z,20.63
2019-02-14T02:37:17.797Z,18.47
2019-02-14T02:39:46.241Z,23.90
2019-02-14T02:42:14.718Z,25.90
2019-02-14T02:44:43.169Z,24.60
2019-02-14T02:47:11.638Z,16.00
2019-02-14T02:49:40.163Z,17.73
2019-02-14T02:52:08.628Z,18.77
2019-02-14T02:54:37.085Z,21.60
2019-02-14T02:57:05.542Z,21.07
2019-02-14T02:59:34.111Z,23.93
2019-02-14T03:02:02.617Z,22.97
2019-02-14T03:04:31.143Z,23.30
2019-02-14T03:06:59.609Z,25.43
2019-02-14T03:09:28.130Z,24.27
2019-02-14T03:11:56.621Z,20.23
2019-02-14T03:14:25.136Z,13.90
2019-02-14T03:16:53.601Z,18.20
2019-02-14T03:19:22.064Z,23.17
2019-02-14T03:21:50.532Z,20.43
2019-02-14T03:24:19.144Z,29.03
2019-02-14T03:26:47.610Z,18.97
2019-02-14T03:29:16.131Z,22.67
2019-02-14T03:31:44.611Z,18.83
2019-02-14T03:34:13.993Z,17.53
2019-02-14T03:36:42.433Z,32.03
2019-02-14T03:39:10.896Z,24.40
2019-02-14T03:41:39.480Z,20.60
2019-02-14T03:44:08.002Z,16.27
2019-02-14T03:46:36.458Z,19.57
2019-02-14T03:49:04.947Z,21.47
2019-02-14T03:51:33.466Z,17.17
2019-02-14T03:54:02.060Z,15.13
2019-02-14T03:56:30.513Z,20.90
2019-02-14T03:58:58.975Z,19.03
2019-02-14T04:01:27.441Z,20.37
2019-02-14T04:03:55.887Z,17.33
2019-02-14T04:06:27.548Z,16.80
2019-02-14T04:08:54.524Z,19.23
2019-02-14T04:11:23.015Z,20.03
2019-02-14T04:13:51.494Z,24.43
2019-02-14T04:16:19.953Z,19.13
2019-02-14T04:18:48.412Z,27.37
2019-02-14T04:21:16.974Z,26.23
2019-02-14T04:23:45.450Z,20.80
2019-02-14T04:26:13.913Z,23.70
2019-02-14T04:28:42.360Z,16.83
2019-02-14T04:31:11.058Z,20.00
2019-02-14T04:33:39.504Z,27.03
2019-02-14T04:36:07.953Z,20.03
2019-02-14T04:38:36.402Z,21.80
2019-02-14T04:41:04.865Z,23.67
2019-02-14T04:43:33.398Z,22.00
2019-02-14T04:46:01.883Z,21.50
2019-02-14T04:48:30.339Z,21.83
2019-02-14T04:50:58.791Z,27.97
2019-02-14T04:53:27.268Z,22.80
2019-02-14T04:55:55.733Z,19.57
2019-02-14T04:58:24.178Z,18.53
2019-02-14T05:00:52.682Z,19.03
2019-02-14T05:03:21.144Z,23.73
2019-02-14T05:05:49.601Z,18.63
2019-02-14T05:08:18.058Z,16.80
2019-02-14T05:10:46.522Z,21.27
2019-02-14T05:13:14.982Z,25.90
2019-02-14T05:15:43.454Z,28.67
2019-02-14T05:18:11.914Z,24.53
2019-02-14T05:20:40.407Z,24.60
2019-02-14T05:23:09.021Z,21.80
2019-02-14T05:25:37.540Z,20.50
2019-02-14T05:28:06.029Z,30.63
2019-02-14T05:30:34.486Z,18.23
2019-02-14T05:33:02.942Z,16.70
2019-02-14T05:35:31.480Z,24.53
2019-02-14T05:37:59.949Z,19.37
2019-02-14T05:40:28.403Z,20.03
2019-02-14T05:42:56.877Z,19.57
2019-02-14T05:45:25.346Z,24.30
2019-02-14T05:47:53.871Z,26.37
2019-02-14T05:50:41.662Z,18.47
2019-02-14T05:53:10.115Z,23.77
2019-02-14T05:55:38.581Z,20.40
2019-02-14T05:58:07.068Z,26.50
2019-02-14T06:00:35.774Z,22.00
2019-02-14T06:03:04.295Z,22.23
2019-02-14T06:05:32.744Z,24.13
2019-02-14T06:08:01.208Z,17.60
2019-02-14T06:10:29.698Z,17.63
2019-02-14T06:12:58.220Z,22.50
2019-02-14T06:15:26.674Z,18.37
2019-02-14T06:17:55.138Z,23.97
2019-02-14T06:20:23.656Z,26.03
2019-02-14T06:22:52.149Z,19.07
2019-02-14T06:25:20.655Z,20.73
2019-02-14T06:27:49.322Z,23.10
2019-02-14T06:30:17.851Z,31.57
2019-02-14T06:32:46.306Z,36.73
2019-02-14T06:35:14.791Z,30.40
2019-02-14T06:37:43.277Z,22.50
2019-02-14T06:40:13.415Z,19.70
2019-02-14T06:42:41.940Z,22.03
2019-02-14T06:45:15.886Z,20.57
2019-02-14T06:47:44.371Z,23.50
2019-02-14T06:50:12.813Z,23.77
2019-02-14T06:52:41.279Z,30.83
2019-02-14T06:55:10.374Z,22.67
2019-02-14T06:57:38.857Z,23.30
2019-02-14T07:00:28.205Z,21.20
2019-02-14T07:02:56.671Z,23.97
2019-02-14T07:05:25.183Z,21.60
2019-02-14T07:07:53.693Z,20.00
2019-02-14T07:10:22.210Z,14.63
2019-02-14T07:12:50.666Z,20.20
2019-02-14T07:15:19.154Z,22.63
2019-02-14T07:17:47.605Z,19.73
2019-02-14T07:20:17.204Z,18.60
2019-02-14T07:22:45.781Z,19.50
2019-02-14T07:25:14.367Z,21.50
2019-02-14T07:27:42.950Z,23.17
2019-02-14T07:30:20.441Z,25.73
2019-02-14T07:32:49.020Z,23.93
2019-02-14T07:35:17.672Z,31.37
2019-02-14T07:37:46.146Z,20.07
2019-02-14T07:40:15.364Z,20.97
2019-02-14T07:42:43.930Z,46.50
2019-02-14T07:45:17.582Z,26.47
2019-02-14T07:47:46.060Z,28.50
2019-02-14T07:50:14.809Z,20.90
2019-02-14T07:52:43.270Z,29.30
2019-02-14T07:55:13.072Z,25.73
2019-02-14T07:57:41.975Z,17.30
2019-02-14T08:00:13.129Z,20.77
2019-02-14T08:02:42.148Z,18.57
2019-02-14T08:05:11.332Z,74.43
2019-02-14T08:07:39.786Z,59.93
2019-02-14T08:10:13.939Z,23.57
2019-02-14T08:12:42.456Z,22.33
2019-02-14T08:15:12.967Z,22.97
2019-02-14T08:17:41.999Z,21.27
2019-02-14T08:20:18.568Z,19.20
2019-02-14T08:22:47.103Z,17.63
2019-02-14T08:25:15.550Z,15.50
2019-02-14T08:27:44.016Z,20.70
2019-02-14T08:30:17.185Z,19.90
2019-02-14T08:32:45.662Z,15.67
2019-02-14T08:35:14.119Z,21.30
2019-02-14T08:37:45.569Z,17.33
2019-02-14T08:40:22.164Z,17.40
2019-02-14T08:42:50.735Z,24.40
2019-02-14T08:45:19.294Z,17.03
2019-02-14T08:47:47.791Z,16.20
2019-02-14T08:50:16.318Z,16.50
2019-02-14T08:52:44.781Z,23.33
2019-02-14T08:55:13.466Z,18.27
2019-02-14T08:57:41.926Z,24.53
2019-02-14T09:00:17.541Z,28.07
2019-02-14T09:02:46.011Z,25.40
2019-02-14T09:05:14.701Z,20.17
2019-02-14T09:07:43.162Z,22.80
2019-02-14T09:10:14.225Z,13.17
2019-02-14T09:12:42.678Z,17.23
2019-02-14T09:15:13.160Z,17.47
2019-02-14T09:17:41.610Z,16.90
2019-02-14T09:20:18.402Z,17.17
2019-02-14T09:22:46.877Z,45.13
2019-02-14T09:25:15.398Z,69.90
2019-02-14T09:27:43.886Z,50.97
2019-02-14T09:30:14.363Z,75.97
2019-02-14T09:32:43.106Z,27.20
2019-02-14T09:35:11.713Z,81.73
2019-02-14T09:37:40.248Z,59.43
2019-02-14T09:40:13.726Z,40.37
2019-02-14T09:42:42.355Z,30.40
2019-02-14T09:45:12.632Z,32.33
2019-02-14T09:47:41.158Z,50.83
2019-02-14T09:50:12.527Z,29.53
2019-02-14T09:52:41.523Z,25.37
2019-02-14T09:55:12.285Z,21.83
2019-02-14T09:57:40.744Z,27.73
2019-02-14T10:00:17.885Z,36.37
2019-02-14T10:02:46.418Z,20.90
2019-02-14T10:05:15.307Z,12.50
2019-02-14T10:07:43.875Z,19.57
2019-02-14T10:10:17.905Z,18.43
2019-02-14T10:12:46.358Z,20.20
2019-02-14T10:15:15.451Z,29.57
2019-02-14T10:17:43.978Z,20.10
2019-02-14T10:20:14.613Z,18.87
2019-02-14T10:22:43.203Z,14.87
2019-02-14T10:25:12.799Z,24.73
2019-02-14T10:27:41.337Z,19.70
2019-02-14T10:30:23.643Z,15.43
2019-02-14T10:32:52.176Z,18.37
2019-02-14T10:35:20.701Z,15.50
2019-02-14T10:37:49.162Z,14.70
2019-02-14T10:40:18.174Z,12.70
2019-02-14T10:42:46.639Z,14.70
2019-02-14T10:45:22.280Z,14.60
2019-02-14T10:47:50.748Z,19.40
2019-02-14T10:50:19.215Z,21.00
2019-02-14T10:52:48.130Z,13.93
2019-02-14T10:55:17.089Z,25.30
2019-02-14T10:57:45.728Z,15.80
2019-02-14T11:00:23.070Z,14.00
2019-02-14T11:02:51.863Z,20.20
2019-02-14T11:05:20.786Z,11.67
2019-02-14T11:07:49.418Z,13.70
2019-02-14T11:10:18.226Z,14.63
2019-02-14T11:12:46.791Z,12.03
2019-02-14T11:15:20.771Z,15.07
2019-02-14T11:17:49.414Z,24.70
2019-02-14T11:20:18.269Z,15.03
2019-02-14T11:22:49.000Z,14.13
2019-02-14T11:25:23.460Z,17.93
2019-02-14T11:27:52.139Z,16.57
2019-02-14T11:30:20.603Z,14.57
2019-02-14T11:32:49.166Z,11.53
2019-02-14T11:35:17.638Z,16.30
2019-02-14T11:37:46.155Z,15.60
2019-02-14T11:40:15.328Z,14.10
2019-02-14T11:42:43.855Z,16.47
2019-02-14T11:45:23.088Z,12.60
2019-02-14T11:47:51.579Z,13.20
2019-02-14T11:50:20.097Z,11.27
2019-02-14T11:52:48.553Z,9.73
2019-02-14T11:55:17.010Z,10.17
2019-02-14T11:57:45.458Z,9.90
2019-02-14T12:00:18.636Z,15.17
2019-02-14T12:02:54.990Z,15.40
2019-02-14T12:05:17.357Z,12.23
2019-02-14T12:07:45.814Z,15.77
2019-02-14T12:10:14.939Z,17.23
2019-02-14T12:12:43.455Z,10.37
2019-02-14T12:15:14.023Z,17.20
2019-02-14T12:17:42.485Z,14.10
2019-02-14T12:20:13.255Z,12.37
2019-02-14T12:22:46.736Z,13.23
2019-02-14T12:25:20.520Z,11.73
2019-02-14T12:27:49.069Z,13.40
2019-02-14T12:30:17.536Z,13.63
2019-02-14T12:32:46.054Z,12.70
2019-02-14T12:35:14.515Z,14.23
2019-02-14T12:37:42.995Z,14.47
2019-02-14T12:40:13.265Z,10.53
2019-02-14T12:42:41.782Z,9.30
2019-02-14T12:45:21.554Z,11.50
2019-02-14T12:47:49.102Z,11.07
2019-02-14T12:50:17.550Z,15.07
2019-02-14T12:52:46.097Z,12.97
2019-02-14T12:55:14.571Z,13.30
2019-02-14T12:57:43.029Z,12.07
2019-02-14T13:00:17.490Z,7.87
2019-02-14T13:02:45.938Z,10.93
2019-02-14T13:05:14.398Z,11.67
2019-02-14T13:07:42.926Z,12.00
2019-02-14T13:10:14.132Z,13.23
2019-02-14T13:12:42.672Z,11.53
2019-02-14T13:15:17.354Z,11.27
2019-02-14T13:17:45.898Z,11.13
2019-02-14T13:20:14.422Z,12.20
2019-02-14T13:22:42.890Z,11.97
2019-02-14T13:25:12.956Z,9.23
2019-02-14T13:27:41.560Z,11.00
2019-02-14T13:30:16.197Z,12.43
2019-02-14T13:32:44.925Z,9.50
2019-02-14T13:35:13.918Z,14.30
2019-02-14T13:37:42.402Z,16.97
2019-02-14T13:40:11.004Z,11.03
2019-02-14T13:42:39.549Z,18.07
2019-02-14T13:45:11.038Z,11.73
2019-02-14T13:47:39.518Z,11.97
2019-02-14T13:50:10.574Z,10.97
2019-02-14T13:52:39.072Z,10.73
2019-02-14T13:55:09.471Z,10.93
2019-02-14T13:57:38.007Z,13.57
2019-02-14T14:00:09.605Z,13.13
2019-02-14T14:02:38.061Z,15.57
2019-02-14T14:05:06.692Z,10.17
2019-02-14T14:07:40.301Z,9.63
2019-02-14T14:10:08.078Z,8.30
2019-02-14T14:12:36.523Z,11.07
2019-02-14T14:15:07.836Z,9.23
2019-02-14T14:17:36.373Z,12.93
2019-02-14T14:20:06.577Z,10.60
2019-02-14T14:22:35.098Z,12.20
2019-02-14T14:25:04.180Z,18.13
2019-02-14T14:27:32.694Z,19.10
2019-02-14T14:30:01.151Z,50.47
2019-02-14T14:32:29.649Z,12.57
2019-02-14T14:34:58.978Z,14.20
2019-02-14T14:37:27.454Z,11.93
2019-02-14T14:39:55.999Z,14.80
2019-02-14T14:42:35.072Z,17.57
2019-02-14T14:45:05.742Z,64.17
2019-02-14T14:47:34.207Z,27.03
2019-02-14T14:50:02.667Z,18.67
2019-02-14T14:52:31.150Z,19.40
2019-02-14T14:55:08.446Z,23.93
2019-02-14T14:57:37.044Z,26.10
2019-02-14T15:00:08.287Z,14.57
2019-02-14T15:02:36.741Z,18.63
2019-02-14T15:05:06.296Z,14.80
2019-02-14T15:07:34.809Z,50.50
2019-02-14T15:10:03.851Z,160.60
2019-02-14T15:12:32.390Z,26.13
2019-02-14T15:15:00.850Z,17.23
2019-02-14T15:17:29.406Z,18.27
2019-02-14T15:19:57.926Z,17.40
2019-02-14T15:22:26.398Z,16.67
2019-02-14T15:24:54.924Z,19.60
2019-02-14T15:27:23.394Z,23.23
2019-02-14T15:29:51.967Z,21.80
2019-02-14T15:32:20.712Z,21.20
2019-02-14T15:34:49.180Z,29.70
2019-02-14T15:37:17.997Z,43.07
2019-02-14T15:39:46.798Z,48.17
2019-02-14T15:42:15.258Z,83.40
2019-02-14T15:44:43.955Z,105.70
2019-02-14T15:47:12.400Z,75.50
2019-02-14T15:49:40.863Z,41.50
2019-02-14T15:52:09.423Z,37.30
2019-02-14T15:54:45.265Z,34.73
2019-02-14T15:57:15.872Z,32.63
2019-02-14T15:59:45.435Z,31.53
2019-02-14T16:02:14.165Z,32.60
2019-02-14T16:04:42.652Z,41.83
2019-02-14T16:07:11.189Z,29.97
2019-02-14T16:09:41.278Z,58.53
2019-02-14T16:12:10.236Z,33.10
2019-02-14T16:14:40.581Z,24.83
2019-02-14T16:17:12.538Z,24.77
2019-02-14T16:19:39.153Z,28.40
2019-02-14T16:22:07.614Z,28.30
2019-02-14T16:24:36.096Z,30.13
2019-02-14T16:27:04.574Z,27.80
2019-02-14T16:29:33.063Z,27.33
2019-02-14T16:32:01.644Z,29.23
2019-02-14T16:34:30.515Z,28.77
2019-02-14T16:36:58.963Z,28.03
2019-02-14T16:39:28.685Z,24.97
2019-02-14T16:41:57.468Z,23.83
2019-02-14T16:44:25.928Z,22.13
2019-02-14T16:46:54.561Z,21.37
2019-02-14T16:49:23.093Z,32.60
2019-02-14T16:51:51.638Z,35.00
2019-02-14T16:54:20.180Z,33.73
2019-02-14T16:56:48.723Z,38.00
2019-02-14T16:59:17.274Z,30.52
2019-02-14T17:01:45.906Z,31.77
2019-02-14T17:04:14.662Z,27.43
2019-02-14T17:06:43.193Z,27.67
2019-02-14T17:09:11.789Z,22.93
2019-02-14T17:11:40.333Z,23.23
2019-02-14T17:14:08.793Z,40.27
2019-02-14T17:16:38.074Z,46.50
2019-02-14T17:19:06.533Z,33.00
2019-02-14T17:21:34.985Z,33.83
2019-02-14T17:24:03.468Z,32.53
2019-02-14T17:26:31.923Z,30.40
2019-02-14T17:29:00.384Z,25.23
2019-02-14T17:31:28.853Z,27.17
2019-02-14T17:33:57.410Z,25.63
2019-02-14T17:36:25.870Z,28.17
2019-02-14T17:38:54.337Z,52.70
2019-02-14T17:41:22.860Z,40.27
2019-02-14T17:43:51.393Z,65.20
2019-02-14T17:46:19.866Z,43.27
2019-02-14T17:48:48.332Z,63.87
2019-02-14T17:51:16.815Z,40.60
2019-02-14T17:53:45.357Z,27.70
2019-02-14T17:56:13.824Z,29.93
2019-02-14T17:58:42.363Z,24.73
2019-02-14T18:01:10.898Z,29.63
2019-02-14T18:03:39.427Z,30.17
2019-02-14T18:06:08.609Z,29.93
2019-02-14T18:08:37.474Z,31.97
2019-02-14T18:11:05.989Z,26.70
2019-02-14T18:13:34.436Z,28.83
2019-02-14T18:16:02.892Z,25.13
2019-02-14T18:18:31.355Z,30.27
2019-02-14T18:20:59.805Z,32.47
2019-02-14T18:23:28.318Z,35.57
2019-02-14T18:25:56.879Z,35.13
2019-02-14T18:28:25.330Z,41.83
2019-02-14T18:30:53.772Z,32.97
2019-02-14T18:33:22.242Z,38.07
2019-02-14T18:35:50.718Z,43.27
2019-02-14T18:38:19.170Z,36.90
2019-02-14T18:40:47.779Z,34.97
2019-02-14T18:43:16.244Z,40.10
2019-02-14T18:45:44.699Z,36.30
2019-02-14T18:48:13.251Z,37.77
2019-02-14T18:50:41.716Z,29.83
2019-02-14T18:53:10.209Z,29.20
2019-02-14T18:55:38.662Z,35.97
2019-02-14T18:58:07.173Z,39.50
2019-02-14T19:00:35.703Z,39.73
2019-02-14T19:03:04.255Z,34.60
2019-02-14T19:05:32.840Z,36.87
2019-02-14T19:08:04.316Z,39.40
2019-02-14T19:10:32.867Z,34.10
2019-02-14T19:13:01.480Z,36.27
2019-02-14T19:15:30.089Z,37.00
2019-02-14T19:17:58.564Z,32.93
2019-02-14T19:20:27.098Z,35.00
2019-02-14T19:22:55.555Z,32.93
2019-02-14T19:25:24.067Z,36.63
2019-02-14T19:27:52.534Z,32.83
2019-02-14T19:30:20.991Z,36.87
2019-02-14T19:32:49.539Z,37.60
2019-02-14T19:35:23.114Z,36.63
2019-02-14T19:37:48.390Z,31.73
2019-02-14T19:40:16.874Z,40.70
2019-02-14T19:42:45.406Z,40.13
2019-02-14T19:45:14.129Z,39.03
2019-02-14T19:47:42.650Z,37.40
2019-02-14T19:50:12.974Z,36.73
2019-02-14T19:52:41.501Z,39.93
2019-02-14T19:55:10.410Z,35.97
2019-02-14T19:57:38.864Z,35.30
2019-02-14T20:00:10.456Z,37.53
2019-02-14T20:02:38.984Z,33.37
2019-02-14T20:05:09.153Z,36.03
2019-02-14T20:07:37.634Z,36.13
2019-02-14T20:10:09.194Z,37.63
2019-02-14T20:12:37.741Z,42.23
2019-02-14T20:15:12.527Z,35.13
2019-02-14T20:17:41.084Z,40.93
2019-02-14T20:20:10.210Z,39.97
2019-02-14T20:22:38.686Z,43.33
2019-02-14T20:25:13.329Z,48.47
2019-02-14T20:27:41.928Z,48.10
2019-02-14T20:30:10.712Z,47.77
2019-02-14T20:32:39.317Z,50.67
2019-02-14T20:35:08.816Z,36.87
2019-02-14T20:37:37.322Z,39.93
2019-02-14T20:40:09.207Z,44.50
2019-02-14T20:42:37.743Z,45.27
2019-02-14T20:45:13.952Z,39.57
2019-02-14T20:47:42.421Z,38.70
2019-02-14T20:50:15.011Z,34.13
2019-02-14T20:52:43.565Z,36.43
2019-02-14T20:55:18.078Z,38.50
2019-02-14T20:57:53.853Z,36.03
2019-02-14T21:00:26.556Z,44.40
2019-02-14T21:02:55.159Z,44.13
2019-02-14T21:05:23.958Z,44.13
2019-02-14T21:07:52.440Z,49.50
2019-02-14T21:10:20.940Z,45.77
2019-02-14T21:15:31.805Z,41.80
2019-02-14T21:18:00.275Z,41.60
2019-02-14T21:20:28.738Z,42.17
2019-02-14T21:22:57.194Z,44.43
2019-02-14T21:25:25.661Z,50.07
2019-02-14T21:27:54.549Z,53.10
2019-02-14T21:30:23.352Z,49.90
2019-02-14T21:32:52.049Z,57.43
2019-02-14T21:35:20.514Z,49.97
2019-02-14T21:37:49.093Z,50.33
2019-02-14T21:40:19.270Z,47.57
2019-02-14T21:42:47.798Z,47.47
2019-02-14T21:45:17.543Z,42.50
2019-02-14T21:47:46.083Z,39.03
2019-02-14T21:50:15.746Z,40.70
2019-02-14T21:52:44.373Z,47.33
2019-02-14T21:55:16.771Z,41.97
2019-02-14T21:58:05.845Z,42.50
2019-02-14T22:00:34.860Z,42.47
2019-02-14T22:03:03.331Z,50.00
2019-02-14T22:05:31.892Z,45.30
2019-02-14T22:08:00.414Z,45.03
2019-02-14T22:10:28.968Z,44.73
2019-02-14T22:12:57.525Z,44.30
2019-02-14T22:15:28.507Z,48.70
2019-02-14T22:17:57.060Z,47.50
2019-02-14T22:20:25.865Z,49.60
2019-02-14T22:22:54.402Z,50.87
2019-02-14T22:25:22.865Z,53.23
2019-02-14T22:27:51.416Z,48.63
2019-02-14T22:30:19.977Z,51.03
2019-02-14T22:32:48.510Z,45.93
2019-02-14T22:35:16.962Z,45.20
2019-02-14T22:37:45.562Z,48.80
2019-02-14T22:40:14.809Z,49.00
2019-02-14T22:42:47.277Z,51.70
2019-02-14T22:45:17.664Z,50.67
2019-02-14T22:47:46.137Z,46.87
2019-02-14T22:50:14.669Z,50.87
2019-02-14T22:52:43.219Z,48.03
2019-02-14T22:55:13.293Z,53.73
2019-02-14T22:57:41.990Z,48.73
2019-02-14T23:00:33.064Z,52.13
2019-02-14T23:03:02.086Z,55.10
2019-02-14T23:05:30.578Z,53.17
2019-02-14T23:07:59.042Z,52.63
2019-02-14T23:10:27.585Z,55.97
2019-02-14T23:12:56.493Z,56.07
2019-02-14T23:15:25.034Z,57.63
2019-02-14T23:17:53.734Z,67.80
2019-02-14T23:20:22.192Z,52.13
2019-02-14T23:22:50.722Z,58.00
2019-02-14T23:25:19.184Z,56.00
2019-02-14T23:27:47.687Z,48.90
2019-02-14T23:30:16.221Z,55.00
2019-02-14T23:32:44.666Z,58.33
2019-02-14T23:35:13.145Z,57.00
2019-02-14T23:37:41.754Z,50.27
2019-02-14T23:40:10.412Z,54.93
2019-02-14T23:42:38.966Z,55.00
2019-02-14T23:45:09.750Z,48.60
2019-02-14T23:47:38.219Z,49.70
2019-02-14T23:50:11.231Z,51.23
2019-02-14T23:52:39.942Z,51.17
2019-02-14T23:55:09.250Z,56.03
2019-02-14T23:57:37.708Z,52.63
